Time;durP1;ratioP1;P1;durP2;ratioP2;P2;SDS_P1;SDS_P2;PMS_P1;PMS_P2;Temp;Humidity;BMP_temperature;BMP_pressure;BME280_temperature;BME280_humidity;BME280_pressure;Samples;Min_cycle;Max_cycle;Signal;HPM_P1;HPM_P2
2021/04/10 00:01:36;;;;;;;2.50;2.30;;;;;;;1.51;100.00;97397.13;5014354;28;20204;-87
2021/04/10 00:04:04;;;;;;;7.63;5.00;;;;;;;1.22;100.00;97394.22;5014359;28;20290;-88
2021/04/10 00:06:31;;;;;;;5.63;4.90;;;;;;;1.38;100.00;97407.25;5014149;28;20286;-88
2021/04/10 00:08:58;;;;;;;4.00;2.80;;;;;;;1.40;100.00;97405.44;5014702;28;20265;-88
2021/04/10 00:11:26;;;;;;;3.07;2.63;;;;;;;1.36;100.00;97398.72;5014519;28;20284;-88
2021/04/10 00:13:52;;;;;;;3.27;2.70;;;;;;;1.36;100.00;97391.78;5014172;28;20286;-87
2021/04/10 00:16:19;;;;;;;7.23;5.00;;;;;;;1.45;100.00;97390.47;5014701;28;20231;-88
2021/04/10 00:18:47;;;;;;;11.20;6.80;;;;;;;1.34;100.00;97391.00;5014349;28;20204;-87
2021/04/10 00:21:14;;;;;;;9.30;6.23;;;;;;;1.35;100.00;97387.53;5014045;28;20237;-88
2021/04/10 00:23:43;;;;;;;6.60;4.50;;;;;;;1.34;100.00;97382.41;5014280;28;20287;-87
2021/04/10 00:26:11;;;;;;;3.17;2.63;;;;;;;1.17;100.00;97384.03;5014202;28;20200;-88
2021/04/10 00:28:38;;;;;;;3.80;3.17;;;;;;;0.91;100.00;97379.28;5014145;28;20305;-88
2021/04/10 00:31:08;;;;;;;3.43;3.13;;;;;;;0.82;100.00;97377.13;5013762;28;20235;-88
2021/04/10 00:33:36;;;;;;;3.40;3.10;;;;;;;0.85;100.00;97380.41;5013820;28;20210;-88
2021/04/10 00:36:04;;;;;;;2.90;2.60;;;;;;;0.83;100.00;97379.66;5013655;28;20230;-87
2021/04/10 00:38:32;;;;;;;7.47;4.47;;;;;;;0.81;100.00;97384.03;5013826;28;20200;-88
2021/04/10 00:41:00;;;;;;;6.87;4.83;;;;;;;1.19;100.00;97378.81;5013626;28;20238;-87
2021/04/10 00:43:27;;;;;;;3.33;3.03;;;;;;;1.10;100.00;97377.47;5013852;28;20246;-88
2021/04/10 00:45:54;;;;;;;3.60;2.80;;;;;;;0.95;100.00;97363.53;5013960;28;20200;-89
2021/04/10 00:48:21;;;;;;;3.30;3.00;;;;;;;1.12;100.00;97360.13;5013626;28;20294;-88
2021/04/10 00:50:50;;;;;;;5.97;3.40;;;;;;;1.32;100.00;97369.53;5013470;28;20199;-88
2021/04/10 00:53:20;;;;;;;6.53;2.80;;;;;;;1.32;100.00;97364.34;5013889;28;20278;-88
2021/04/10 00:55:48;;;;;;;5.03;2.90;;;;;;;1.29;100.00;97368.84;5013589;28;20199;-88
2021/04/10 00:58:15;;;;;;;3.87;3.27;;;;;;;1.37;100.00;97366.72;5013786;28;20306;-88
2021/04/10 01:00:43;;;;;;;3.43;2.90;;;;;;;0.87;100.00;97352.72;5013411;28;20200;-88
2021/04/10 01:03:09;;;;;;;3.10;2.80;;;;;;;0.58;100.00;97366.16;5013542;28;20227;-88
2021/04/10 01:05:37;;;;;;;3.13;2.83;;;;;;;0.55;100.00;97367.13;5013265;28;20688;-89
2021/04/10 01:08:04;;;;;;;3.30;3.00;;;;;;;0.87;100.00;97377.75;5013279;28;20192;-89
2021/04/10 01:10:33;;;;;;;3.53;2.87;;;;;;;0.89;100.00;97373.31;5013538;28;20230;-88
2021/04/10 01:13:07;;;;;;;5.60;3.20;;;;;;;0.83;100.00;97374.47;5013196;28;20245;-88
2021/04/10 01:15:44;;;;;;;4.47;3.17;;;;;;;0.77;100.00;97372.16;5013287;28;20187;-88
2021/04/10 01:18:15;;;;;;;4.10;3.00;;;;;;;1.10;100.00;97367.13;5013151;28;20294;-88
2021/04/10 01:21:10;;;;;;;4.07;3.67;;;;;;;1.12;100.00;97364.47;5013543;28;20219;-88
2021/04/10 01:24:16;;;;;;;6.67;3.23;;;;;;;0.64;100.00;97345.16;5010929;28;20199;-88
2021/04/10 01:27:12;;;;;;;3.13;2.83;;;;;;;0.28;100.00;97345.97;5013185;28;20282;-88
2021/04/10 01:29:44;;;;;;;3.00;2.80;;;;;;;0.31;100.00;97340.63;5013000;28;20231;-88
2021/04/10 01:32:13;;;;;;;4.03;3.10;;;;;;;0.41;100.00;97348.81;5013563;28;20581;-88
2021/04/10 01:34:44;;;;;;;3.93;3.37;;;;;;;0.33;100.00;97358.66;5013011;28;20282;-88
2021/04/10 01:37:14;;;;;;;3.33;3.00;;;;;;;0.31;100.00;97360.47;5012902;28;20218;-88
2021/04/10 01:39:42;;;;;;;2.93;2.70;;;;;;;0.38;100.00;97354.97;5013019;28;20195;-88
2021/04/10 01:42:12;;;;;;;3.23;2.80;;;;;;;0.38;100.00;97354.97;5012894;28;20207;-89
2021/04/10 01:44:42;;;;;;;3.23;2.97;;;;;;;0.40;100.00;97357.47;5012967;28;20290;-88
2021/04/10 01:47:13;;;;;;;3.43;3.13;;;;;;;0.33;100.00;97356.91;5012966;28;20195;-85
2021/04/10 01:49:41;;;;;;;3.73;3.43;;;;;;;0.29;100.00;97351.97;5013045;28;20278;-86
2021/04/10 01:52:09;;;;;;;3.20;2.90;;;;;;;0.45;100.00;97358.97;5012614;28;20231;-86
2021/04/10 01:54:38;;;;;;;3.60;3.13;;;;;;;0.79;100.00;97361.72;5012648;28;20199;-86
2021/04/10 01:57:06;;;;;;;5.33;4.50;;;;;;;0.87;100.00;97362.22;5012593;28;20227;-86
2021/04/10 01:59:35;;;;;;;5.57;4.80;;;;;;;0.78;100.00;97371.25;5013128;28;20286;-87
2021/04/10 02:02:03;;;;;;;5.70;4.23;;;;;;;0.58;100.00;97404.94;5013064;28;20283;-86
2021/04/10 02:04:33;;;;;;;3.93;3.57;;;;;;;0.56;100.00;97422.31;5012626;28;20672;-86
2021/04/10 02:07:01;;;;;;;3.77;3.47;;;;;;;0.56;100.00;97453.34;5012670;28;20282;-87
2021/04/10 02:09:28;;;;;;;4.00;3.60;;;;;;;0.69;100.00;97449.28;5012509;28;20672;-86
2021/04/10 02:11:57;;;;;;;3.47;2.90;;;;;;;0.63;100.00;97447.84;5014177;28;20202;-87
2021/04/10 02:14:24;;;;;;;3.60;3.30;;;;;;;0.78;100.00;97437.69;5016424;28;20195;-88
2021/04/10 02:16:51;;;;;;;3.53;3.13;;;;;;;0.74;100.00;97420.63;5016596;28;20703;-87
2021/04/10 02:19:19;;;;;;;9.80;7.03;;;;;;;0.47;100.00;97411.44;5016233;28;20242;-88
2021/04/10 02:21:46;;;;;;;15.13;9.07;;;;;;;0.30;100.00;97418.28;5016571;28;20204;-87
2021/04/10 02:24:13;;;;;;;9.10;5.53;;;;;;;0.16;100.00;97426.63;5016170;28;20711;-89
2021/04/10 02:26:40;;;;;;;5.37;4.67;;;;;;;0.17;100.00;97436.06;5016146;28;20199;-89
2021/04/10 02:29:07;;;;;;;3.57;3.27;;;;;;;0.04;100.00;97435.75;5016144;28;20199;-89
2021/04/10 02:31:40;;;;;;;3.73;3.43;;;;;;;0.20;100.00;97420.41;5015993;28;20323;-89
2021/04/10 02:34:11;;;;;;;3.63;3.33;;;;;;;0.07;100.00;97420.13;5016565;28;20589;-89
2021/04/10 02:36:40;;;;;;;3.07;2.87;;;;;;;0.17;100.00;97411.06;5016429;28;20239;-87
2021/04/10 02:39:07;;;;;;;3.20;2.90;;;;;;;0.49;100.00;97416.56;5016279;28;20199;-88
2021/04/10 02:41:35;;;;;;;4.00;3.50;;;;;;;0.49;100.00;97442.44;5015957;28;20779;-87
2021/04/10 02:44:08;;;;;;;3.10;2.83;;;;;;;0.60;100.00;97429.84;5015960;28;20199;-88
2021/04/10 02:46:37;;;;;;;3.07;2.77;;;;;;;0.57;100.00;97424.81;5015849;28;20219;-88
2021/04/10 02:49:07;;;;;;;3.53;3.03;;;;;;;0.51;100.00;97399.22;5015755;28;20202;-88
2021/04/10 02:51:39;;;;;;;5.90;3.67;;;;;;;0.56;100.00;97401.63;5016317;28;20636;-88
2021/04/10 02:54:08;;;;;;;4.80;3.53;;;;;;;0.46;100.00;97381.31;5015708;28;20249;-89
2021/04/10 02:56:39;;;;;;;3.23;2.93;;;;;;;0.50;100.00;97360.50;5015466;28;20230;-87
2021/04/10 02:59:08;;;;;;;4.13;3.37;;;;;;;0.58;100.00;97368.72;5015601;28;20184;-88
2021/04/10 03:01:36;;;;;;;4.17;3.23;;;;;;;0.33;100.00;97387.13;5015882;28;20234;-88
2021/04/10 03:04:04;;;;;;;5.17;3.63;;;;;;;0.46;100.00;97398.59;5015562;28;20192;-88
2021/04/10 03:06:32;;;;;;;4.73;3.93;;;;;;;0.33;100.00;97389.69;5015705;28;20287;-88
2021/04/10 03:09:00;;;;;;;7.30;4.30;;;;;;;0.45;100.00;97392.59;5015893;28;20226;-90
2021/04/10 03:11:29;;;;;;;5.67;4.73;;;;;;;0.46;100.00;97385.66;5015396;28;20210;-89
2021/04/10 03:13:56;;;;;;;11.40;6.90;;;;;;;0.38;100.00;97383.44;5015229;28;20263;-89
2021/04/10 03:16:28;;;;;;;7.63;6.87;;;;;;;0.46;100.00;97383.91;5015435;28;20654;-89
2021/04/10 03:18:57;;;;;;;7.27;5.53;;;;;;;0.27;100.00;97341.66;5015286;28;20191;-89
2021/04/10 03:21:24;;;;;;;6.03;5.47;;;;;;;0.14;100.00;97340.53;5015108;28;20195;-90
2021/04/10 03:23:51;;;;;;;6.10;4.67;;;;;;;0.31;100.00;97345.78;5013008;28;20282;-89
2021/04/10 03:26:19;;;;;;;6.23;5.57;;;;;;;0.23;100.00;97356.47;5014908;28;20203;-89
2021/04/10 03:28:48;;;;;;;12.70;8.47;;;;;;;-0.06;100.00;97356.94;5015006;28;20254;-90
2021/04/10 03:31:15;;;;;;;8.40;6.77;;;;;;;0.14;100.00;97367.25;5014754;28;20239;-90
2021/04/10 03:33:43;;;;;;;8.63;7.70;;;;;;;0.23;100.00;97350.47;5015227;28;20283;-89
2021/04/10 03:36:10;;;;;;;7.03;6.23;;;;;;;0.15;100.00;97357.75;5014832;28;20195;-89
2021/04/10 03:38:37;;;;;;;4.33;3.93;;;;;;;-0.07;100.00;97363.00;5015033;28;20196;-90
2021/04/10 03:41:07;;;;;;;4.90;4.40;;;;;;;0.19;100.00;97362.69;5015081;28;20238;-90
2021/04/10 03:43:34;;;;;;;6.63;5.63;;;;;;;0.17;100.00;97354.19;5014915;28;20341;-89
2021/04/10 03:46:02;;;;;;;5.73;5.23;;;;;;;0.17;100.00;97356.78;5014586;28;20202;-89
2021/04/10 03:48:30;;;;;;;5.67;4.83;;;;;;;0.21;100.00;97344.56;5014661;28;20206;-90
2021/04/10 03:50:57;;;;;;;4.33;3.93;;;;;;;0.36;100.00;97340.44;5014471;28;20203;-89
2021/04/10 03:53:24;;;;;;;4.50;4.10;;;;;;;0.21;100.00;97326.47;5014474;28;20199;-89
2021/04/10 03:55:51;;;;;;;6.60;4.43;;;;;;;-0.03;100.00;97336.13;5014592;28;20210;-90
2021/04/10 03:58:18;;;;;;;109.57;48.80;;;;;;;-0.29;100.00;97345.00;5014623;28;20227;-89
2021/04/10 04:00:44;;;;;;;41.57;22.20;;;;;;;-0.15;100.00;97352.16;5014292;28;20294;-90
2021/04/10 04:03:12;;;;;;;14.27;9.10;;;;;;;-0.07;100.00;97360.41;5014422;28;20286;-89
2021/04/10 04:05:39;;;;;;;5.33;4.10;;;;;;;0.00;100.00;97361.84;5014360;28;20286;-88
2021/04/10 04:08:06;;;;;;;7.07;5.60;;;;;;;0.19;100.00;97367.88;5014656;28;20191;-89
2021/04/10 04:10:33;;;;;;;6.20;4.27;;;;;;;0.19;100.00;97354.94;5014478;28;20203;-89
2021/04/10 04:13:00;;;;;;;5.10;4.60;;;;;;;0.20;100.00;97358.38;5014135;28;20210;-88
2021/04/10 04:15:27;;;;;;;4.17;3.57;;;;;;;0.19;100.00;97357.53;5014221;28;20238;-88
2021/04/10 04:17:53;;;;;;;4.33;2.80;;;;;;;0.20;100.00;97356.63;5013887;28;20314;-89
2021/04/10 04:20:21;;;;;;;9.93;6.37;;;;;;;0.36;100.00;97349.03;5014267;28;20203;-86
2021/04/10 04:22:48;;;;;;;17.50;10.93;;;;;;;0.29;100.00;97342.44;5013496;28;20676;-81
2021/04/10 04:25:15;;;;;;;10.00;8.10;;;;;;;0.37;100.00;97345.53;5014372;28;20207;-89
2021/04/10 04:27:42;;;;;;;26.67;15.37;;;;;;;0.26;100.00;97357.25;5014134;28;20665;-89
2021/04/10 04:30:10;;;;;;;20.17;13.77;;;;;;;0.19;100.00;97373.03;5013737;28;20242;-88
2021/04/10 04:32:37;;;;;;;21.17;13.40;;;;;;;0.15;100.00;97386.19;5013546;28;20196;-88
2021/04/10 04:35:04;;;;;;;14.03;9.70;;;;;;;0.38;100.00;97367.03;5013452;28;20234;-88
2021/04/10 04:37:32;;;;;;;13.67;9.30;;;;;;;0.28;100.00;97356.31;5015729;28;20227;-88
2021/04/10 04:39:59;;;;;;;20.97;14.03;;;;;;;0.35;100.00;97347.34;5023156;28;20195;-88
2021/04/10 04:42:26;;;;;;;48.67;28.80;;;;;;;0.32;100.00;97331.97;5013762;28;20207;-88
2021/04/10 04:44:52;;;;;;;46.03;27.47;;;;;;;0.24;100.00;97339.22;5013569;28;20257;-88
2021/04/10 04:47:19;;;;;;;50.33;32.57;;;;;;;0.25;100.00;97364.19;5013460;28;20237;-88
2021/04/10 04:49:46;;;;;;;63.60;41.10;;;;;;;0.32;100.00;97351.81;5013643;28;20257;-87
2021/04/10 04:52:13;;;;;;;63.83;42.80;;;;;;;0.27;100.00;97353.75;5013378;28;20668;-88
2021/04/10 04:54:40;;;;;;;34.57;27.87;;;;;;;0.29;100.00;97354.53;5013882;28;20242;-88
2021/04/10 04:57:07;;;;;;;22.97;17.90;;;;;;;0.39;100.00;97348.06;5013489;28;20223;-88
2021/04/10 04:59:34;;;;;;;15.47;12.17;;;;;;;0.44;100.00;97340.91;5013211;28;20297;-88
2021/04/10 05:02:01;;;;;;;10.47;9.33;;;;;;;0.53;100.00;97329.31;5013286;28;20204;-88
2021/04/10 05:04:27;;;;;;;12.03;9.40;;;;;;;0.61;100.00;97320.28;5013277;28;20200;-88
2021/04/10 05:06:54;;;;;;;22.30;12.20;;;;;;;0.67;100.00;97317.41;5013175;28;20286;-89
2021/04/10 05:09:21;;;;;;;19.70;12.80;;;;;;;0.74;100.00;97311.94;5013500;28;20204;-90
2021/04/10 05:11:50;;;;;;;21.17;12.90;;;;;;;0.85;100.00;97300.16;5012991;28;20238;-87
2021/04/10 05:14:17;;;;;;;23.70;14.13;;;;;;;0.91;100.00;97284.34;5012686;28;20269;-89
2021/04/10 05:16:44;;;;;;;37.53;21.83;;;;;;;0.85;100.00;97273.44;5012021;28;20310;-87
2021/04/10 05:19:10;;;;;;;23.17;13.93;;;;;;;0.90;100.00;97274.06;5012892;28;20595;-87
2021/04/10 05:21:37;;;;;;;79.47;39.33;;;;;;;1.08;100.00;97275.75;5013696;28;20204;-88
2021/04/10 05:24:05;;;;;;;93.50;52.90;;;;;;;1.00;100.00;97275.28;5013503;28;20642;-87
2021/04/10 05:26:32;;;;;;;87.50;54.80;;;;;;;1.17;100.00;97290.81;5013203;28;20238;-90
2021/04/10 05:28:59;;;;;;;79.30;45.10;;;;;;;1.32;100.00;97298.78;5012760;28;20202;-89
2021/04/10 05:31:26;;;;;;;79.63;42.03;;;;;;;1.39;100.00;97300.16;5011873;28;20239;-85
2021/04/10 05:33:53;;;;;;;48.23;30.23;;;;;;;1.50;100.00;97307.38;5012637;28;20691;-92
2021/04/10 05:36:20;;;;;;;40.60;27.20;;;;;;;1.68;100.00;97290.88;5012963;28;20203;-92
2021/04/10 05:38:46;;;;;;;41.80;27.30;;;;;;;1.94;100.00;97283.50;5013035;28;20330;-89
2021/04/10 05:41:13;;;;;;;40.80;26.30;;;;;;;2.17;100.00;97269.31;5012278;28;20643;-84
2021/04/10 05:43:40;;;;;;;54.87;29.40;;;;;;;2.32;100.00;97245.13;5011417;28;20203;-85
2021/04/10 05:46:08;;;;;;;26.87;17.63;;;;;;;2.44;100.00;97228.91;5012131;28;20200;-85
2021/04/10 05:48:34;;;;;;;15.47;10.23;;;;;;;2.60;100.00;97214.16;5016034;28;20664;-88
2021/04/10 05:51:01;;;;;;;10.30;8.47;;;;;;;2.71;100.00;97184.16;5016063;28;20199;-85
2021/04/10 05:53:28;;;;;;;10.13;8.43;;;;;;;2.87;100.00;97143.41;5016660;28;20199;-87
2021/04/10 05:55:55;;;;;;;8.20;7.33;;;;;;;2.89;100.00;97115.59;5016225;28;20237;-88
2021/04/10 05:58:22;;;;;;;17.77;11.00;;;;;;;3.13;100.00;97117.66;5016601;28;20386;-87
2021/04/10 06:00:49;;;;;;;13.57;8.93;;;;;;;3.25;100.00;97107.34;5016393;28;20258;-87
2021/04/10 06:03:17;;;;;;;9.07;7.10;;;;;;;3.48;100.00;97118.94;5016239;28;20199;-87
2021/04/10 06:05:45;;;;;;;14.67;7.77;;;;;;;3.63;100.00;97085.97;5016027;28;20199;-85
2021/04/10 06:08:12;;;;;;;10.90;8.93;;;;;;;3.79;100.00;97091.88;5015326;28;20605;-86
2021/04/10 06:10:38;;;;;;;15.43;10.17;;;;;;;3.96;100.00;97087.41;5015530;28;20302;-84
2021/04/10 06:13:05;;;;;;;11.03;6.90;;;;;;;3.96;100.00;97077.00;5015493;28;20207;-85
2021/04/10 06:15:32;;;;;;;7.13;6.30;;;;;;;4.02;100.00;97061.81;5015396;28;20698;-85
2021/04/10 06:17:59;;;;;;;8.73;6.33;;;;;;;4.00;100.00;97047.25;5015356;28;20220;-86
2021/04/10 06:20:27;;;;;;;9.03;6.83;;;;;;;4.26;100.00;97058.53;5015209;28;20672;-85
2021/04/10 06:22:54;;;;;;;9.20;7.00;;;;;;;4.51;100.00;97044.78;5015231;28;20199;-85
2021/04/10 06:25:21;;;;;;;8.90;6.47;;;;;;;4.61;100.00;97037.19;5015221;28;20203;-85
2021/04/10 06:27:48;;;;;;;9.63;8.00;;;;;;;4.87;100.00;97028.44;5015270;28;20270;-85
2021/04/10 06:30:16;;;;;;;9.90;8.20;;;;;;;5.08;100.00;97005.28;5014900;28;20719;-85
2021/04/10 06:32:42;;;;;;;5.57;4.90;;;;;;;5.10;100.00;96986.94;5015296;28;20235;-85
2021/04/10 06:35:10;;;;;;;8.43;5.30;;;;;;;5.56;100.00;96979.28;5014973;28;20215;-87
2021/04/10 06:37:38;;;;;;;7.97;5.97;;;;;;;5.71;100.00;96946.06;5015869;28;20686;-87
2021/04/10 06:40:06;;;;;;;14.57;10.60;;;;;;;6.12;100.00;96944.81;5015975;28;20820;-87
2021/04/10 06:42:34;;;;;;;7.23;5.53;;;;;;;6.28;100.00;96914.00;5015633;28;20231;-88
2021/04/10 06:45:00;;;;;;;3.93;3.53;;;;;;;6.48;100.00;96873.34;5015805;28;20613;-87
2021/04/10 06:47:29;;;;;;;5.67;5.17;;;;;;;6.71;100.00;96852.41;5015339;28;20286;-88
2021/04/10 06:49:58;;;;;;;5.87;4.57;;;;;;;6.75;100.00;96838.97;5015316;28;20199;-88
2021/04/10 06:52:25;;;;;;;6.43;4.37;;;;;;;6.80;100.00;96828.19;5015495;28;20290;-88
2021/04/10 06:54:58;;;;;;;7.50;4.70;;;;;;;6.79;100.00;96835.22;5015357;28;20202;-88
2021/04/10 06:57:29;;;;;;;4.23;3.80;;;;;;;7.10;100.00;96806.59;5015355;28;20212;-89
2021/04/10 07:00:01;;;;;;;3.73;3.13;;;;;;;7.29;100.00;96803.34;5015609;28;20223;-87
2021/04/10 07:02:31;;;;;;;4.10;3.37;;;;;;;7.52;100.00;96770.91;5015280;28;20703;-88
2021/04/10 07:04:58;;;;;;;3.30;3.00;;;;;;;7.81;100.00;96757.16;5015199;28;20209;-88
2021/04/10 07:07:25;;;;;;;4.03;3.10;;;;;;;8.11;100.00;96735.41;5015140;28;20688;-87
2021/04/10 07:09:53;;;;;;;3.43;3.00;;;;;;;8.34;100.00;96726.38;5015068;28;20195;-88
2021/04/10 07:12:20;;;;;;;5.70;3.43;;;;;;;8.69;100.00;96698.91;5015044;28;20806;-87
2021/04/10 07:14:47;;;;;;;6.10;4.27;;;;;;;8.88;100.00;96692.03;5014885;28;20286;-88
2021/04/10 07:17:15;;;;;;;7.00;6.27;;;;;;;8.58;100.00;96654.50;5014852;28;20269;-88
2021/04/10 07:19:42;;;;;;;6.23;5.63;;;;;;;8.39;100.00;96652.69;5015372;28;20311;-93
2021/04/10 07:22:11;;;;;;;4.70;4.20;;;;;;;8.55;100.00;96633.78;5015080;28;20239;-88
2021/04/10 07:24:41;;;;;;;3.10;2.77;;;;;;;8.71;100.00;96633.25;5015128;28;20206;-88
2021/04/10 07:27:11;;;;;;;4.13;3.77;;;;;;;8.91;100.00;96628.84;5014645;28;20253;-88
2021/04/10 07:29:40;;;;;;;5.33;4.83;;;;;;;8.75;100.00;96629.41;5015332;28;20669;-87
2021/04/10 07:32:28;;;;;;;5.23;3.57;;;;;;;8.84;100.00;96638.25;5014713;28;20227;-88
2021/04/10 07:34:56;;;;;;;6.70;4.83;;;;;;;9.20;100.00;96624.38;5015062;28;20200;-87
2021/04/10 07:37:37;;;;;;;14.17;7.40;;;;;;;9.08;100.00;96633.38;5014692;28;20314;-87
2021/04/10 07:40:07;;;;;;;5.03;4.50;;;;;;;9.03;100.00;96633.78;5014705;28;20209;-88
2021/04/10 07:42:38;;;;;;;5.70;4.80;;;;;;;9.03;100.00;96643.44;5015268;28;20191;-88
2021/04/10 07:45:14;;;;;;;4.27;3.87;;;;;;;8.75;100.00;96643.31;5013702;28;20195;-90
2021/04/10 07:47:41;;;;;;;3.50;3.20;;;;;;;9.13;100.00;96646.06;5015347;28;20278;-96
2021/04/10 07:50:17;;;;;;;4.60;4.17;;;;;;;9.47;100.00;96639.38;5015395;28;20210;-96
2021/04/10 07:52:44;;;;;;;5.53;4.73;;;;;;;9.38;100.00;96665.63;5128757;23;20333;-94
2021/04/10 07:55:40;;;;;;;4.37;3.30;;;;;;;9.58;100.00;96667.22;5027100;28;20684;-91
2021/04/10 07:58:31;;;;;;;4.97;3.23;;;;;;;9.45;100.00;96650.97;5014660;28;20319;-89
2021/04/10 08:00:59;;;;;;;3.73;3.37;;;;;;;9.49;100.00;96647.09;5014150;28;20195;-86
2021/04/10 08:03:30;;;;;;;3.77;3.47;;;;;;;9.71;100.00;96632.81;5014154;28;20586;-86
2021/04/10 08:06:12;;;;;;;14.57;11.73;;;;;;;9.48;100.00;96617.41;5014156;28;20194;-86
2021/04/10 08:08:51;;;;;;;6.07;5.47;;;;;;;9.68;100.00;96626.03;5013750;28;20187;-85
2021/04/10 08:11:29;;;;;;;3.97;3.67;;;;;;;9.78;100.00;96576.13;5026882;28;20580;-85
2021/04/10 08:13:58;;;;;;;2.83;2.50;;;;;;;10.01;100.00;96629.09;5033502;28;20187;-85
2021/04/10 08:16:26;;;;;;;3.67;3.03;;;;;;;10.50;100.00;96619.13;5033316;28;20198;-85
2021/04/10 08:18:54;;;;;;;3.90;3.57;;;;;;;10.07;100.00;96580.38;5033342;28;20321;-90
2021/04/10 08:21:22;;;;;;;3.03;2.80;;;;;;;10.04;100.00;96479.06;5033657;28;20249;-91
2021/04/10 08:23:49;;;;;;;4.70;3.33;;;;;;;10.32;100.00;96380.03;5033747;28;20199;-86
2021/04/10 08:26:17;;;;;;;6.00;4.33;;;;;;;10.34;100.00;96409.59;5033237;28;20209;-95
2021/04/10 08:28:44;;;;;;;6.43;5.83;;;;;;;10.39;100.00;96409.13;5033529;28;20199;-88
2021/04/10 08:31:16;;;;;;;7.53;5.87;;;;;;;10.60;100.00;96462.19;5046532;28;20195;-93
2021/04/10 08:33:44;;;;;;;4.70;3.90;;;;;;;10.72;100.00;96470.63;5034606;28;20183;-92
2021/04/10 08:36:12;;;;;;;3.63;3.00;;;;;;;10.82;100.00;96473.97;5034930;28;20269;-91
2021/04/10 08:38:40;;;;;;;5.27;4.13;;;;;;;10.83;100.00;96469.53;5033597;28;20717;-94
2021/04/10 08:41:09;;;;;;;3.40;2.80;;;;;;;10.95;100.00;96550.66;5022036;28;20290;-85
2021/04/10 08:43:39;;;;;;;16.13;13.97;;;;;;;10.73;100.00;96534.53;5013485;28;20273;-89
2021/04/10 08:46:09;;;;;;;4.23;3.33;;;;;;;10.91;100.00;96537.94;5013479;28;20234;-90
2021/04/10 08:48:38;;;;;;;6.27;3.70;;;;;;;11.35;100.00;96537.91;5012991;28;20223;-85
2021/04/10 08:51:09;;;;;;;11.37;10.30;;;;;;;11.47;100.00;96531.41;5012963;28;20639;-85
2021/04/10 08:53:39;;;;;;;8.53;7.60;;;;;;;11.62;100.00;96610.59;5012681;28;20281;-87
2021/04/10 08:56:07;;;;;;;56.10;28.77;;;;;;;11.14;100.00;96678.53;5013197;28;20184;-87
2021/04/10 08:58:35;;;;;;;61.20;32.63;;;;;;;11.05;100.00;96632.09;5012760;28;20269;-87
2021/04/10 09:01:05;;;;;;;18.57;10.97;;;;;;;11.47;100.00;96618.25;5012960;28;20253;-87
2021/04/10 09:03:53;;;;;;;73.17;39.57;;;;;;;10.77;100.00;96626.09;5013029;28;20370;-87
2021/04/10 09:06:55;;;;;;;29.23;19.30;;;;;;;10.75;100.00;96641.22;5012575;28;20672;-88
2021/04/10 09:09:31;;;;;;;24.03;16.70;;;;;;;11.45;100.00;96638.63;5008091;28;20241;-86
2021/04/10 09:12:19;;;;;;;24.93;13.83;;;;;;;11.13;100.00;96665.53;5012878;28;20227;-87
2021/04/10 09:14:47;;;;;;;24.50;15.00;;;;;;;11.34;100.00;96659.94;5012780;28;20199;-87
2021/04/10 09:17:14;;;;;;;15.60;10.43;;;;;;;10.95;100.00;96703.19;5013154;28;20646;-87
2021/04/10 09:19:41;;;;;;;39.00;22.70;;;;;;;11.45;100.00;96696.53;5012821;28;20217;-87
2021/04/10 09:22:10;;;;;;;15.93;11.43;;;;;;;11.86;100.00;96629.19;5012042;28;20226;-87
2021/04/10 09:24:40;;;;;;;8.73;7.33;;;;;;;12.14;100.00;96710.63;5012619;28;20704;-87
2021/04/10 09:27:17;;;;;;;9.57;7.90;;;;;;;12.26;100.00;96674.28;5012674;28;20668;-87
2021/04/10 09:30:02;;;;;;;11.03;9.37;;;;;;;11.35;100.00;96656.31;5012956;28;20198;-87
2021/04/10 09:32:32;;;;;;;6.80;6.20;;;;;;;12.33;100.00;96702.50;5012423;28;20191;-87
2021/04/10 09:35:00;;;;;;;5.33;4.37;;;;;;;12.43;100.00;96735.81;5011920;28;20199;-87
2021/04/10 09:38:01;;;;;;;5.17;4.67;;;;;;;12.19;100.00;96741.78;5012719;28;20601;-88
2021/04/10 09:40:49;;;;;;;15.77;11.20;;;;;;;11.67;100.00;96710.97;5012593;28;20196;-87
2021/04/10 09:43:22;;;;;;;20.17;14.67;;;;;;;11.69;100.00;96726.66;5012729;28;20188;-87
2021/04/10 09:45:52;;;;;;;15.57;13.17;;;;;;;11.83;100.00;96723.44;5012528;28;20230;-88
2021/04/10 09:48:30;;;;;;;9.10;8.20;;;;;;;11.87;100.00;96814.38;5012243;28;20191;-87
2021/04/10 09:51:06;;;;;;;7.27;6.50;;;;;;;11.94;100.00;96835.66;5012660;28;20187;-87
2021/04/10 09:53:33;;;;;;;5.83;5.33;;;;;;;12.46;100.00;96825.94;5012430;28;20365;-87
2021/04/10 09:56:13;;;;;;;8.90;7.70;;;;;;;11.91;100.00;96881.56;5012304;28;20289;-87
2021/04/10 09:58:52;;;;;;;22.43;17.30;;;;;;;12.20;100.00;96867.31;5016279;28;20202;-87
2021/04/10 10:04:42;;;;;;;10.70;6.03;;;;;;;12.72;100.00;96951.69;4950207;28;20275;-87
2021/04/10 10:07:10;;;;;;;4.13;3.73;;;;;;;12.47;100.00;96954.16;5032066;28;20706;-86
2021/04/10 10:09:37;;;;;;;6.83;4.47;;;;;;;12.92;100.00;96875.78;5032444;28;20256;-87
2021/04/10 10:12:05;;;;;;;4.10;3.40;;;;;;;12.38;100.00;96926.09;5031649;28;20199;-88
2021/04/10 10:14:45;;;;;;;13.40;8.90;;;;;;;11.98;100.00;96945.84;5012408;28;20199;-88
2021/04/10 10:20:08;;;;;;;19.30;13.07;;;;;;;12.50;100.00;96940.66;5011162;28;20708;-87
2021/04/10 10:22:36;;;;;;;5.20;4.03;;;;;;;13.00;100.00;97028.88;5012345;28;20190;-87
2021/04/10 10:25:04;;;;;;;3.13;2.80;;;;;;;12.07;100.00;97016.06;5012279;28;20282;-87
2021/04/10 10:27:34;;;;;;;8.00;4.27;;;;;;;12.34;100.00;97003.81;5012085;28;20210;-87
2021/04/10 10:30:03;;;;;;;11.47;8.27;;;;;;;12.41;100.00;97018.03;5012152;28;20200;-87
2021/04/10 10:32:30;;;;;;;8.23;5.40;;;;;;;12.33;100.00;97047.81;5012981;28;20660;-87
2021/04/10 10:35:06;;;;;;;10.53;6.93;;;;;;;12.83;100.00;97051.69;5016046;28;20593;-88
2021/04/10 10:37:33;;;;;;;16.23;9.77;;;;;;;12.46;100.00;97079.03;5015505;28;20217;-88
2021/04/10 10:40:01;;;;;;;4.07;3.53;;;;;;;13.12;100.00;97043.44;5015766;28;20684;-88
2021/04/10 10:42:28;;;;;;;3.67;2.70;;;;;;;13.01;100.00;97085.94;5015746;28;20198;-89
2021/04/10 10:44:54;;;;;;;6.67;5.03;;;;;;;13.06;100.00;97058.13;5015652;28;20195;-88
2021/04/10 10:47:26;;;;;;;4.40;4.00;;;;;;;13.31;100.00;97055.66;5015819;28;20214;-88
2021/04/10 10:49:53;;;;;;;6.10;5.23;;;;;;;12.91;100.00;97114.22;5015658;28;20194;-89
2021/04/10 10:52:20;;;;;;;3.37;2.87;;;;;;;13.34;100.00;97136.38;5015568;28;20231;-88
2021/04/10 10:54:48;;;;;;;4.83;3.23;;;;;;;13.63;100.00;97114.91;5015644;28;20213;-89
2021/04/10 10:57:17;;;;;;;3.63;3.33;;;;;;;13.21;100.00;97129.63;5015764;28;20223;-89
2021/04/10 10:59:44;;;;;;;3.40;3.10;;;;;;;13.22;100.00;97133.09;5015841;28;20571;-88
2021/04/10 11:02:18;;;;;;;4.30;3.97;;;;;;;13.02;100.00;97129.81;5015784;28;20203;-88
2021/04/10 11:04:47;;;;;;;9.23;4.20;;;;;;;13.47;100.00;97103.28;5015468;28;20203;-88
2021/04/10 11:07:15;;;;;;;9.03;5.47;;;;;;;12.92;100.00;97124.66;5015329;28;20206;-88
2021/04/10 11:09:43;;;;;;;4.10;3.23;;;;;;;13.44;100.00;97106.25;5015523;28;20207;-89
2021/04/10 11:12:13;;;;;;;7.30;5.70;;;;;;;13.73;100.00;97123.56;5015683;28;20207;-89
2021/04/10 11:14:42;;;;;;;13.00;10.57;;;;;;;13.15;100.00;97139.97;5016523;28;20194;-89
2021/04/10 11:17:11;;;;;;;4.80;2.90;;;;;;;13.27;100.00;97146.72;5014989;28;20210;-88
2021/04/10 11:19:40;;;;;;;7.33;5.37;;;;;;;13.66;100.00;97138.38;5015125;28;20731;-88
2021/04/10 11:22:08;;;;;;;7.87;3.30;;;;;;;13.59;100.00;97156.66;5015354;28;20673;-88
2021/04/10 11:24:36;;;;;;;4.00;3.60;;;;;;;13.86;100.00;97131.88;5015363;28;20679;-88
2021/04/10 11:27:12;;;;;;;11.47;6.60;;;;;;;13.97;100.00;97151.94;5014904;28;20208;-88
2021/04/10 11:29:39;;;;;;;11.57;9.67;;;;;;;13.53;100.00;97152.81;5014792;28;20245;-88
2021/04/10 11:32:13;;;;;;;5.50;3.07;;;;;;;13.31;100.00;97151.53;5015228;28;20557;-88
2021/04/10 11:34:41;;;;;;;3.37;2.97;;;;;;;13.59;100.00;97150.56;5015260;28;20199;-88
2021/04/10 11:37:10;;;;;;;3.77;3.47;;;;;;;13.69;100.00;97165.31;5027351;28;20264;-88
2021/04/10 11:39:51;;;;;;;16.73;11.90;;;;;;;13.67;100.00;97164.63;5020722;28;20207;-88
2021/04/10 11:42:25;;;;;;;24.47;16.27;;;;;;;13.28;100.00;97164.22;5014661;28;20702;-89
2021/04/10 11:44:53;;;;;;;16.07;12.87;;;;;;;13.29;100.00;97168.50;5013985;28;20183;-88